ADDS METAR Data INFO
IDs: Format: Raw Decoded Include TAF

Data at: 2020 UTC 20 Jul 2018

KCHD 201947Z 24008KT 10SM CLR 39/17 A2987
KCHD 201847Z 21008KT 10SM CLR 38/17 A2989
KCHD 201747Z 29004KT 10SM CLR 37/17 A2991
KCHD 201647Z 33006KT 10SM CLR 36/17 A2991
KCHD 201547Z 33007KT 10SM CLR 35/17 A2991
KCHD 201447Z 00000KT 10SM FEW150 SCT250 34/18 A2991
KCHD 201347Z 12003KT 10SM FEW150 SCT250 31/18 A2990
KCHD 201247Z 00000KT 10SM FEW150 SCT250 31/18 A2988
KCHD 200347Z 23011KT 10SM CLR 38/18 A2983 RMK LAST
KCHD 200247Z 25008KT 10SM CLR 38/18 A2980
KCHD 200147Z 25011KT 10SM CLR 39/17 A2980
KCHD 200047Z 25011KT 10SM CLR 40/18 A2978
KCHD 192347Z 24011KT 10SM CLR 40/18 A2981
KCHD 192147Z 24008KT 10SM CLR 40/18 A2985
KCHD 192047Z 28010KT 10SM CLR 39/19 A2988
KCHD 191947Z 29007KT 10SM CLR 38/20 A2992
KCHD 191847Z 27007KT 10SM CLR 37/20 A2995
KCHD 191747Z 17008KT 10SM CLR 35/20 A2997
KCHD 191647Z 29009KT 10SM CLR 34/20 A2998
KCHD 191550Z 15005KT 10SM FEW150 SCT250 33/20 A2998
KCHD 191447Z 12004KT 10SM FEW150 SCT250 32/20 A2998
KCHD 191347Z 13006KT 10SM FEW150 SCT200 30/20 A2997
KCHD 191247Z 12005KT 10SM FEW120 SCT250 30/20 A2995